createdAt,value
2023-05-01T00:02:55.326Z,99315.09
2023-05-01T00:06:12.606Z,99315.81
2023-05-01T00:09:29.091Z,99309.55
2023-05-01T00:12:45.409Z,99307.44
2023-05-01T00:16:01.908Z,99311.16
2023-05-01T00:19:24.813Z,99309.16
2023-05-01T00:22:41.360Z,99302.73
2023-05-01T00:25:57.816Z,99299.89
2023-05-01T00:29:14.242Z,99308.80
2023-05-01T00:32:31.927Z,99307.78
2023-05-01T00:35:52.359Z,99312.52
2023-05-01T00:39:09.742Z,99314.27
2023-05-01T00:42:26.218Z,99312.90
2023-05-01T00:45:42.706Z,99311.64
2023-05-01T00:48:59.716Z,99305.43
2023-05-01T00:52:16.257Z,99309.11
2023-05-01T00:55:34.194Z,99317.77
2023-05-01T00:58:51.465Z,99316.55
2023-05-01T01:02:07.704Z,99316.10
2023-05-01T01:05:24.761Z,99316.10
2023-05-01T01:08:46.603Z,99318.86
2023-05-01T01:12:12.628Z,99306.83
2023-05-01T01:15:35.014Z,99309.31
2023-05-01T01:18:56.912Z,99307.91
2023-05-01T01:22:18.271Z,99308.28
2023-05-01T01:26:08.160Z,99308.66
2023-05-01T01:30:00.641Z,99308.79
2023-05-01T01:33:55.447Z,99304.17
2023-05-01T01:37:17.574Z,99301.55
2023-05-01T01:40:41.577Z,99310.52
2023-05-01T01:44:01.544Z,99289.67
2023-05-01T01:47:21.700Z,99299.02
2023-05-01T01:50:40.014Z,99297.48
2023-05-01T01:53:59.957Z,99296.40
2023-05-01T01:57:19.413Z,99292.73
2023-05-01T02:00:42.817Z,99294.38
2023-05-01T02:03:59.927Z,99292.02
2023-05-01T02:07:19.747Z,99285.72
2023-05-01T02:10:37.874Z,99281.20
2023-05-01T02:13:57.278Z,99285.63
2023-05-01T02:17:14.702Z,99285.17
2023-05-01T02:20:31.920Z,99281.59
2023-05-01T02:23:49.523Z,99281.84
2023-05-01T02:27:10.541Z,99275.23
2023-05-01T02:30:27.564Z,99283.06
2023-05-01T02:33:43.917Z,99279.25
2023-05-01T02:37:00.285Z,99282.35
2023-05-01T02:40:19.571Z,99281.52
2023-05-01T02:43:39.073Z,99278.06
2023-05-01T02:46:58.431Z,99282.70
2023-05-01T02:50:17.086Z,99283.31
2023-05-01T02:53:34.542Z,99277.25
2023-05-01T02:56:53.236Z,99280.22
2023-05-01T03:00:14.323Z,99282.59
2023-05-01T03:03:31.136Z,99274.03
2023-05-01T03:06:48.066Z,99278.80
2023-05-01T03:10:05.014Z,99273.09
2023-05-01T03:13:22.792Z,99268.80
2023-05-01T03:16:41.346Z,99265.33
2023-05-01T03:19:58.190Z,99258.42
2023-05-01T03:23:15.030Z,99258.80
2023-05-01T03:26:31.423Z,99262.59
2023-05-01T03:29:48.136Z,99250.34
2023-05-01T03:33:04.924Z,99257.83
2023-05-01T03:36:22.977Z,99257.61
2023-05-01T03:39:39.614Z,99259.88
2023-05-01T03:42:58.010Z,99246.66
2023-05-01T03:46:14.765Z,99250.95
2023-05-01T03:49:31.303Z,99249.39
2023-05-01T03:52:48.053Z,99246.76
2023-05-01T03:56:05.569Z,99243.66
2023-05-01T03:59:23.919Z,99237.34
2023-05-01T04:02:40.341Z,99248.05
2023-05-01T04:05:57.422Z,99251.23
2023-05-01T04:09:13.973Z,99251.73
2023-05-01T04:12:30.536Z,99251.08
2023-05-01T04:15:48.822Z,99255.92
2023-05-01T04:19:05.564Z,99254.92
2023-05-01T04:22:23.010Z,99254.02
2023-05-01T04:25:40.615Z,99255.19
2023-05-01T04:28:58.603Z,99253.59
2023-05-01T04:32:15.054Z,99253.29
2023-05-01T04:35:31.613Z,99251.11
2023-05-01T04:38:49.058Z,99244.45
2023-05-01T04:42:05.495Z,99254.36
2023-05-01T04:45:22.956Z,99255.09
2023-05-01T04:48:39.359Z,99251.41
2023-05-01T04:51:59.159Z,99247.05
2023-05-01T04:55:19.533Z,99252.34
2023-05-01T04:58:53.587Z,99245.61
2023-05-01T05:02:11.348Z,99246.88
2023-05-01T05:05:27.973Z,99250.23
2023-05-01T05:08:44.530Z,99251.61
2023-05-01T05:12:00.991Z,99250.11
2023-05-01T05:15:19.693Z,99251.73
2023-05-01T05:18:36.162Z,99254.77
2023-05-01T05:21:53.061Z,99248.00
2023-05-01T05:25:09.713Z,99254.33
2023-05-01T05:28:30.346Z,99255.48
2023-05-01T05:31:49.385Z,99253.59
2023-05-01T05:35:19.576Z,99256.67
2023-05-01T05:38:36.582Z,99260.67
2023-05-01T05:41:56.295Z,99263.03
2023-05-01T05:45:15.482Z,99264.92
2023-05-01T05:48:33.406Z,99266.63
2023-05-01T05:51:50.013Z,99263.19
2023-05-01T05:55:07.551Z,99271.38
2023-05-01T05:58:25.640Z,99271.84
2023-05-01T06:01:43.692Z,99281.00
2023-05-01T06:05:00.235Z,99279.73
2023-05-01T06:08:17.696Z,99273.34
2023-05-01T06:11:34.203Z,99266.42
2023-05-01T06:14:50.751Z,99271.62
2023-05-01T06:18:07.336Z,99278.13
2023-05-01T06:21:23.858Z,99276.81
2023-05-01T06:24:42.027Z,99276.81
2023-05-01T06:27:59.179Z,99276.48
2023-05-01T06:31:15.739Z,99283.43
2023-05-01T06:34:33.822Z,99274.48
2023-05-01T06:37:50.157Z,99280.09
2023-05-01T06:41:06.851Z,99282.88
2023-05-01T06:44:23.602Z,99282.22
2023-05-01T06:47:39.994Z,99287.59
2023-05-01T06:50:57.479Z,99278.61
2023-05-01T06:54:14.216Z,99277.25
2023-05-01T06:57:32.022Z,99275.41
2023-05-01T07:00:48.791Z,99265.43
2023-05-01T07:04:05.325Z,99273.55
2023-05-01T07:07:21.677Z,99273.66
2023-05-01T07:10:40.447Z,99275.78
2023-05-01T07:13:56.354Z,99273.69
2023-05-01T07:17:14.584Z,99276.63
2023-05-01T07:20:31.556Z,99284.61
2023-05-01T07:23:48.056Z,99293.34
2023-05-01T07:27:04.542Z,99284.34
2023-05-01T07:30:22.709Z,99292.19
2023-05-01T07:33:39.232Z,99284.19
2023-05-01T07:36:55.802Z,99296.36
2023-05-01T07:40:13.787Z,99293.08
2023-05-01T07:43:30.256Z,99287.66
2023-05-01T07:46:46.569Z,99314.19
2023-05-01T07:50:06.091Z,99298.63
2023-05-01T07:53:23.463Z,99302.88
2023-05-01T07:56:40.027Z,99304.78
2023-05-01T07:59:57.353Z,99298.48
2023-05-01T08:03:14.524Z,99288.46
2023-05-01T08:06:31.406Z,99288.89
2023-05-01T08:09:47.687Z,99307.31
2023-05-01T08:13:07.170Z,99301.88
2023-05-01T08:16:24.765Z,99313.90
2023-05-01T08:19:46.219Z,99317.77
2023-05-01T08:23:04.295Z,99315.72
2023-05-01T08:26:22.472Z,99313.95
2023-05-01T08:29:39.098Z,99316.75
2023-05-01T08:32:56.004Z,99312.86
2023-05-01T08:36:16.256Z,99295.50
2023-05-01T08:39:38.198Z,99300.95
2023-05-01T08:43:03.632Z,99297.45
2023-05-01T08:46:27.232Z,99304.95
2023-05-01T08:49:44.390Z,99308.08
2023-05-01T08:53:02.678Z,99292.84
2023-05-01T08:56:24.405Z,99292.41
2023-05-01T08:59:44.424Z,99301.77
2023-05-01T09:03:02.279Z,99303.32
2023-05-01T09:06:20.229Z,99293.95
2023-05-01T09:09:37.609Z,99281.25
2023-05-01T09:12:58.360Z,99284.53
2023-05-01T09:16:16.556Z,99272.98
2023-05-01T09:19:36.345Z,99278.48
2023-05-01T09:22:55.363Z,99276.00
2023-05-01T09:26:13.949Z,99274.77
2023-05-01T09:29:51.291Z,99271.27
2023-05-01T09:33:17.752Z,99257.66
2023-05-01T09:36:37.375Z,99253.80
2023-05-01T09:39:54.112Z,99255.80
2023-05-01T09:43:11.844Z,99255.55
2023-05-01T09:46:30.524Z,99259.33
2023-05-01T09:49:56.649Z,99248.34
2023-05-01T09:53:14.749Z,99232.89
2023-05-01T09:56:32.385Z,99241.00
2023-05-01T09:59:50.315Z,99237.83
2023-05-01T10:03:21.913Z,99241.61
2023-05-01T10:06:53.555Z,99226.34
2023-05-01T10:10:28.378Z,99223.38
2023-05-01T10:13:46.742Z,99233.70
2023-05-01T10:17:03.622Z,99223.92
2023-05-01T10:20:22.314Z,99216.48
2023-05-01T10:23:39.905Z,99220.21
2023-05-01T10:26:59.683Z,99212.96
2023-05-01T10:30:20.713Z,99206.49
2023-05-01T10:33:40.407Z,99200.51
2023-05-01T10:37:02.081Z,99198.86
2023-05-01T10:40:54.924Z,99198.02
2023-05-01T10:44:37.443Z,99196.94
2023-05-01T10:47:57.002Z,99196.79
2023-05-01T10:51:22.405Z,99203.19
2023-05-01T10:54:41.515Z,99191.26
2023-05-01T10:57:57.899Z,99187.63
2023-05-01T11:01:40.702Z,99176.27
2023-05-01T11:11:01.053Z,99164.59
2023-05-01T11:15:07.831Z,99165.05
2023-05-01T11:19:39.217Z,99161.08
2023-05-01T11:22:58.362Z,99148.80
2023-05-01T11:26:15.370Z,99149.53
2023-05-01T11:29:32.050Z,99136.94
2023-05-01T11:32:50.831Z,99127.53
2023-05-01T11:36:12.346Z,99130.02
2023-05-01T11:39:29.496Z,99127.15
2023-05-01T11:42:48.287Z,99124.45
2023-05-01T11:46:07.852Z,99109.91
2023-05-01T11:49:26.225Z,99107.13
2023-05-01T11:52:55.956Z,99108.77
2023-05-01T11:56:25.392Z,99110.05
2023-05-01T11:59:34.620Z,99109.50
2023-05-01T12:03:07.317Z,99088.38
2023-05-01T12:06:24.179Z,99101.31
2023-05-01T12:09:42.681Z,99094.25
2023-05-01T12:13:00.212Z,99088.61
2023-05-01T12:16:18.129Z,99083.09
2023-05-01T12:19:36.177Z,99084.70
2023-05-01T12:23:02.850Z,99076.24
2023-05-01T12:26:29.098Z,99069.00
2023-05-01T12:29:52.525Z,99065.06
2023-05-01T12:33:18.644Z,99056.63
2023-05-01T12:36:37.176Z,99049.02
2023-05-01T12:39:54.078Z,99052.92
2023-05-01T12:43:10.710Z,99057.23
2023-05-01T12:46:27.265Z,99034.31
2023-05-01T12:49:45.365Z,99039.45
2023-05-01T12:53:02.308Z,99041.96
2023-05-01T12:56:28.761Z,99032.92
2023-05-01T12:59:47.601Z,99028.15
2023-05-01T13:03:09.830Z,99021.14
2023-05-01T13:06:26.570Z,99018.91
2023-05-01T13:09:43.093Z,99013.11
2023-05-01T13:12:59.533Z,99009.02
2023-05-01T13:16:18.724Z,99001.95
2023-05-01T13:19:38.873Z,99005.01
2023-05-01T13:22:55.761Z,99004.63
2023-05-01T13:26:13.299Z,98995.13
2023-05-01T13:29:32.406Z,98991.77
2023-05-01T13:32:51.154Z,98977.11
2023-05-01T13:36:17.844Z,98976.95
2023-05-01T13:39:29.072Z,98970.95
2023-05-01T13:42:43.893Z,98969.08
2023-05-01T13:46:04.645Z,98965.16
2023-05-01T13:49:21.633Z,98970.56
2023-05-01T13:52:39.062Z,98957.78
2023-05-01T13:55:58.000Z,98964.98
2023-05-01T13:59:15.121Z,98958.43
2023-05-01T14:02:35.313Z,98968.34
2023-05-01T14:05:54.906Z,98959.47
2023-05-01T14:09:12.968Z,98951.20
2023-05-01T14:12:33.135Z,98952.46
2023-05-01T14:15:50.356Z,98947.29
2023-05-01T14:19:06.899Z,98934.55
2023-05-01T14:22:23.512Z,98932.83
2023-05-01T14:25:41.759Z,98927.66
2023-05-01T14:29:00.640Z,98927.58
2023-05-01T14:32:19.742Z,98930.25
2023-05-01T14:35:53.680Z,98925.13
2023-05-01T14:39:18.858Z,98910.08
2023-05-01T14:42:36.904Z,98916.63
2023-05-01T14:45:58.591Z,98909.47
2023-05-01T14:49:15.810Z,98901.81
2023-05-01T14:52:32.223Z,98893.17
2023-05-01T14:55:55.223Z,98903.89
2023-05-01T14:59:11.744Z,98895.04
2023-05-01T15:02:28.624Z,98894.61
2023-05-01T15:05:47.018Z,98899.97
2023-05-01T15:09:05.493Z,98881.22
2023-05-01T15:12:21.831Z,98880.15
2023-05-01T15:15:41.083Z,98879.72
2023-05-01T15:18:57.225Z,98877.04
2023-05-01T15:22:13.700Z,98874.13
2023-05-01T15:25:30.190Z,98879.95
2023-05-01T15:28:46.513Z,98870.50
2023-05-01T15:32:12.075Z,98865.34
2023-05-01T15:35:24.461Z,98866.98
2023-05-01T15:38:40.812Z,98860.81
2023-05-01T15:41:57.895Z,98849.48
2023-05-01T15:45:18.679Z,98860.44
2023-05-01T15:48:35.184Z,98848.08
2023-05-01T15:51:55.508Z,98847.04
2023-05-01T15:55:14.496Z,98835.66
2023-05-01T15:58:32.648Z,98843.90
2023-05-01T16:01:49.835Z,98846.81
2023-05-01T16:05:06.447Z,98847.27
2023-05-01T16:08:24.594Z,98837.36
2023-05-01T16:11:43.458Z,98834.08
2023-05-01T16:14:59.848Z,98826.88
2023-05-01T16:18:22.410Z,98821.28
2023-05-01T16:21:42.738Z,98821.89
2023-05-01T16:25:00.359Z,98820.25
2023-05-01T16:28:17.958Z,98820.48
2023-05-01T16:31:34.963Z,98815.92
2023-05-01T16:34:52.539Z,98813.24
2023-05-01T16:38:10.217Z,98817.56
2023-05-01T16:41:27.242Z,98817.19
2023-05-01T16:44:45.728Z,98817.42
2023-05-01T16:48:02.381Z,98813.33
2023-05-01T16:51:20.892Z,98812.73
2023-05-01T16:54:37.639Z,98814.80
2023-05-01T16:57:55.090Z,98819.78
2023-05-01T17:01:11.832Z,98820.01
2023-05-01T17:04:33.661Z,98813.84
2023-05-01T17:07:51.325Z,98803.56
2023-05-01T17:11:07.687Z,98809.34
2023-05-01T17:14:26.858Z,98801.52
2023-05-01T17:17:42.075Z,98797.65
2023-05-01T17:20:58.275Z,98798.53
2023-05-01T17:24:18.522Z,98792.80
2023-05-01T17:27:36.314Z,98788.41
2023-05-01T17:30:52.796Z,98787.60
2023-05-01T17:34:18.440Z,98788.64
2023-05-01T17:37:42.984Z,98794.03
2023-05-01T17:40:59.354Z,98790.63
2023-05-01T17:44:16.012Z,98791.70
2023-05-01T17:47:32.487Z,98790.96
2023-05-01T17:50:52.292Z,98786.68
2023-05-01T17:54:08.958Z,98788.97
2023-05-01T17:57:29.212Z,98786.36
2023-05-01T18:00:45.759Z,98786.42
2023-05-01T18:04:02.558Z,98785.42
2023-05-01T18:07:19.365Z,98783.61
2023-05-01T18:10:35.810Z,98785.73
2023-05-01T18:13:52.842Z,98782.05
2023-05-01T18:17:09.608Z,98786.80
2023-05-01T18:20:29.807Z,98775.75
2023-05-01T18:23:48.488Z,98786.23
2023-05-01T18:27:05.605Z,98773.73
2023-05-01T18:30:22.775Z,98784.08
2023-05-01T18:33:41.719Z,98785.14
2023-05-01T18:36:58.115Z,98781.45
2023-05-01T18:40:17.394Z,98787.28
2023-05-01T18:43:31.475Z,98781.77
2023-05-01T18:46:47.669Z,98784.07
2023-05-01T18:50:04.372Z,98780.81
2023-05-01T18:53:20.959Z,98775.91
2023-05-01T18:56:37.296Z,98782.48
2023-05-01T18:59:53.805Z,98771.61
2023-05-01T19:03:12.605Z,98771.81
2023-05-01T19:06:29.086Z,98771.84
2023-05-01T19:09:45.494Z,98768.37
2023-05-01T19:13:01.782Z,98768.56
2023-05-01T19:16:18.365Z,98773.50
2023-05-01T19:19:35.007Z,98768.98
2023-05-01T19:22:51.433Z,98772.67
2023-05-01T19:26:11.318Z,98772.05
2023-05-01T19:29:32.933Z,98775.12
2023-05-01T19:32:50.404Z,98767.92
2023-05-01T19:36:06.951Z,98758.67
2023-05-01T19:39:23.694Z,98758.46
2023-05-01T19:42:40.359Z,98759.86
2023-05-01T19:45:57.705Z,98756.59
2023-05-01T19:49:14.490Z,98759.23
2023-05-01T19:52:31.349Z,98757.33
2023-05-01T19:55:48.154Z,98762.65
2023-05-01T19:59:04.843Z,98762.38
2023-05-01T20:02:21.743Z,98752.36
2023-05-01T20:05:38.325Z,98751.09
2023-05-01T20:08:54.739Z,98751.06
2023-05-01T20:12:11.402Z,98747.17
2023-05-01T20:15:27.825Z,98741.80
2023-05-01T20:18:44.163Z,98744.81
2023-05-01T20:22:00.502Z,98729.47
2023-05-01T20:25:17.732Z,98740.38
2023-05-01T20:28:34.182Z,98734.86
2023-05-01T20:31:51.377Z,98724.21
2023-05-01T20:35:10.917Z,98728.39
2023-05-01T20:38:27.391Z,98721.06
2023-05-01T20:41:43.808Z,98728.13
2023-05-01T20:45:00.211Z,98733.75
2023-05-01T20:48:16.916Z,98728.78
2023-05-01T20:51:33.742Z,98726.10
2023-05-01T20:54:50.105Z,98732.15
2023-05-01T20:58:07.048Z,98729.03
2023-05-01T21:01:23.368Z,98741.69
2023-05-01T21:04:40.178Z,98728.31
2023-05-01T21:07:56.583Z,98741.32
2023-05-01T21:11:13.081Z,98736.47
2023-05-01T21:14:29.562Z,98739.73
2023-05-01T21:17:49.808Z,98750.34
2023-05-01T21:21:09.627Z,98738.39
2023-05-01T21:24:29.430Z,98743.97
2023-05-01T21:27:48.928Z,98742.64
2023-05-01T21:31:05.387Z,98745.98
2023-05-01T21:34:25.259Z,98754.52
2023-05-01T21:37:42.033Z,98761.84
2023-05-01T21:40:58.570Z,98757.06
2023-05-01T21:44:15.273Z,98764.25
2023-05-01T21:47:31.799Z,98768.41
2023-05-01T21:50:48.493Z,98768.78
2023-05-01T21:54:07.214Z,98765.95
2023-05-01T21:57:23.953Z,98767.13
2023-05-01T22:00:42.619Z,98763.72
2023-05-01T22:03:59.251Z,98777.66
2023-05-01T22:07:16.477Z,98775.00
2023-05-01T22:10:32.816Z,98767.95
2023-05-01T22:13:49.156Z,98776.52
2023-05-01T22:17:05.800Z,98781.30
2023-05-01T22:20:22.483Z,98780.70
2023-05-01T22:23:38.785Z,98776.09
2023-05-01T22:26:55.196Z,98783.05
2023-05-01T22:30:14.199Z,98778.56
2023-05-01T22:33:30.744Z,98780.73
2023-05-01T22:36:47.042Z,98780.31
2023-05-01T22:40:04.463Z,98783.64
2023-05-01T22:43:20.969Z,98784.66
2023-05-01T22:46:37.289Z,98792.78
2023-05-01T22:49:53.761Z,98778.89
2023-05-01T22:53:10.159Z,98779.12
2023-05-01T22:56:27.383Z,98789.02
2023-05-01T22:59:44.982Z,98786.89
2023-05-01T23:03:01.627Z,98794.63
2023-05-01T23:06:17.927Z,98789.02
2023-05-01T23:09:34.638Z,98795.98
2023-05-01T23:12:52.875Z,98794.65
2023-05-01T23:16:10.273Z,98789.73
2023-05-01T23:19:33.952Z,98795.55
2023-05-01T23:22:50.854Z,98793.40
2023-05-01T23:26:09.226Z,98790.58
2023-05-01T23:29:26.360Z,98786.33
2023-05-01T23:32:43.371Z,98786.32
2023-05-01T23:35:59.898Z,98786.81
2023-05-01T23:39:17.149Z,98783.82
2023-05-01T23:42:33.490Z,98787.48
2023-05-01T23:45:50.001Z,98774.27
2023-05-01T23:49:06.584Z,98789.28
2023-05-01T23:52:24.298Z,98787.98
2023-05-01T23:55:40.829Z,98788.30
2023-05-01T23:58:57.109Z,98784.34
